Tiempo atmosférico en la estación meteorológica de Córdoba, Córdoba (525 m.)



Fecha
DESCASC
Temp. máxima en grados centígrados (hora)
DESCASC
Temp. mínima en grados centígrados (hora)
DESCASC
Temp. media en grados centígrados
DESCASC
Racha de viento máxima en m/sg (hora)
DESCASC
Velocidad máxima media en intervalos de 10 minutos(hora)
DESCASC
Precipitaciones diarias en mm
DESCASC
Precipitaciones de 00:00 a 06:00 en mm
DESCASC
Precipitaciones de 06:00 a 12:00 en mm
DESCASC
Precipitaciones de 12:00 a 18:00 en mm
DESCASC
Precipitaciones de 18:00 a 24:00 en mm
DESCASC

Gráficas

Temp. máximas Temp. mínimas Temp. medias Precipitaciones Rachas de viento máximas Velocidades máximas media en intervalos de 10 minutos

Datos horarios

Fecha y hora oficial Temperatura (ºC) Velocidad del viento (km/h) Dirección del viento Racha (km/h) Dirección de racha Precipitación (mm) Presión (hPa) Tendencia (hPa) Humedad (%)
2019-10-15 23:00:00 11.7 9 Norte 16 Norte 0 -- -- 59
2019-10-15 22:00:00 10.9 3 Nordeste 6 Nordeste 0 -- -- 64
2019-10-15 21:00:00 13 0 Calma 7 Oeste 0 -- -- 58
2019-10-15 20:00:00 15.7 3 Oeste 10 Noroeste 0 -- -- 47
2019-10-15 19:00:00 18 4 Norte 15 Norte 0 -- -- 39
2019-10-15 18:00:00 19.9 2 Oeste 15 Noroeste 0 -- -- 33
2019-10-15 17:00:00 19.4 7 Nordeste 18 Norte 0 -- -- 38
2019-10-15 16:00:00 19.3 7 Norte 16 Norte 0 -- -- 36
2019-10-15 15:00:00 18.3 6 Norte 19 Norte 0 -- -- 36
2019-10-15 14:00:00 18.1 5 Noroeste 16 Noroeste 0 -- -- 42
2019-10-15 13:00:00 15.7 8 Nordeste 17 Norte 0 -- -- 51
2019-10-15 12:00:00 14.6 8 Norte 25 Norte 0 -- -- 58
2019-10-15 11:00:00 12.6 13 Norte 24 Norte 0 -- -- 64
2019-10-15 10:00:00 11 8 Norte 15 Norte 0 -- -- 76
2019-10-15 09:00:00 8.1 6 Norte 18 Norte 0.2 -- -- 88
2019-10-15 08:00:00 7.8 8 Norte 17 Norte 0 -- -- 92
2019-10-15 07:00:00 8.9 8 Norte 18 Norte 0 -- -- 83
2019-10-15 06:00:00 9.4 7 Norte 27 Noroeste 0 -- -- 83
2019-10-15 05:00:00 8.9 9 Norte 19 Noroeste 0 -- -- 89
2019-10-15 04:00:00 8.7 2 Norte 9 Noroeste 0 -- -- 92
2019-10-15 03:00:00 9.5 3 Norte 12 Norte 0 -- -- 91
2019-10-15 02:00:00 10.3 3 Oeste 13 Oeste 0 -- -- 90
2019-10-15 01:00:00 10.4 5 Oeste 14 Oeste 0 -- -- 90
2019-10-15 00:00:00 11.2 2 Norte 19 Oeste 0 -- -- 87
2019-10-14 23:00:00 12.2 6 Noroeste 23 Noroeste 0 -- -- 84
2019-10-14 22:00:00 11.9 6 Oeste 25 Norte 0.2 -- -- 89
2019-10-14 21:00:00 13.1 10 Noroeste 33 Noroeste 0.8 -- -- 87
2019-10-14 20:00:00 15.9 11 Noroeste 37 Sudoeste 0 -- -- 74
2019-10-14 19:00:00 18.8 23 Sudoeste 43 Sur 0 -- -- 51
2019-10-14 18:00:00 20.2 26 Sudoeste 48 Sudoeste 0 -- -- 47
2019-10-14 17:00:00 20.1 28 Sudoeste 49 Sudoeste 0 -- -- 52
2019-10-14 16:00:00 20.4 28 Sudoeste 45 Sudoeste 0 -- -- 54
2019-10-14 15:00:00 20.2 24 Sudoeste 40 Sudoeste 0 -- -- 61
2019-10-14 14:00:00 18.5 24 Sudoeste 36 Sudoeste 0 -- -- 66
2019-10-14 13:00:00 18.6 16 Sudoeste 30 Sudoeste 0 -- -- 71
2019-10-14 12:00:00 17.2 15 Sudoeste 31 Sudoeste 0 -- -- 81
2019-10-14 11:00:00 15.8 13 Sudoeste 32 Sudoeste 0 -- -- 91
2019-10-14 10:00:00 15.3 24 Sudoeste 50 Sudoeste 1.4 -- -- 92
2019-10-14 09:00:00 16.7 23 Sudoeste 48 Sudoeste 0 -- -- 86
2019-10-14 08:00:00 16.6 22 Sudoeste 50 Sudoeste 0 -- -- 84
2019-10-14 07:00:00 17.2 31 Sudoeste 55 Sudoeste 0 -- -- 83
2019-10-14 06:00:00 17.2 20 Sudoeste 42 Oeste 0 -- -- 76
2019-10-14 05:00:00 17.3 12 Sudoeste 24 Sudoeste 0 -- -- 76
2019-10-14 04:00:00 18.2 15 Sudoeste 30 Sudoeste 0 -- -- 67
2019-10-14 03:00:00 20.5 15 Sudoeste 42 Sudoeste 0 -- -- 55
2019-10-14 02:00:00 22.2 21 Sudoeste 39 Sudoeste 0 -- -- 40
2019-10-14 01:00:00 20.4 11 Sudoeste 18 Oeste 0 -- -- 48
2019-10-14 00:00:00 20.5 6 Sudoeste 13 Sudoeste 0 -- -- 53
2019-10-13 23:00:00 18.8 4 Oeste 12 Sudoeste 0 -- -- 65
2019-10-13 22:00:00 19.4 4 Sudoeste 8 Sudoeste 0 -- -- 60
2019-10-13 21:00:00 21 0 Calma 3 Nordeste 0 -- -- 59
2019-10-13 20:00:00 24.8 3 Sur 11 Sur 0 -- -- 44
2019-10-13 19:00:00 27.3 7 Sur 15 Sur 0 -- -- 39
2019-10-13 18:00:00 28.6 7 Sur 21 Sudoeste 0 -- -- 36
2019-10-13 17:00:00 28.1 10 Sur 25 Sur 0 -- -- 37
2019-10-13 16:00:00 27.4 11 Sur 26 Sur 0 -- -- 38
2019-10-13 15:00:00 26.5 10 Sudoeste 24 Sudoeste 0 -- -- 41
2019-10-13 14:00:00 24.9 11 Sur 22 Sur 0 -- -- 46
2019-10-13 13:00:00 23.6 9 Sur 21 Sur 0 -- -- 54
2019-10-13 12:00:00 22 5 Sur 14 Sudoeste 0 -- -- 62
2019-10-13 11:00:00 19.7 8 Sudoeste 16 Sudoeste 0 -- -- 69
2019-10-13 10:00:00 17.7 5 Sudoeste 9 Sudoeste 0 -- -- 81
2019-10-13 09:00:00 16.4 2 Sudoeste 4 Sur 0 -- -- 87
2019-10-13 08:00:00 16.6 3 Sur 13 Sudoeste 0 -- -- 86
2019-10-13 07:00:00 16.5 6 Sudoeste 18 Sudoeste 0 -- -- 88
2019-10-13 06:00:00 16.7 10 Sudoeste 19 Sudoeste 0 -- -- 88
2019-10-13 05:00:00 17.3 11 Sudoeste 22 Sudoeste 0 -- -- 87
2019-10-13 04:00:00 17.2 11 Sudoeste 22 Oeste 0 -- -- 87
2019-10-13 03:00:00 17.3 8 Sudoeste 16 Sudoeste 0 -- -- 87
2019-10-13 02:00:00 18.2 7 Oeste 23 Sudoeste 0 -- -- 83
2019-10-13 01:00:00 19.4 13 Sudoeste 28 Oeste 0 -- -- 77
2019-10-13 00:00:00 20.7 12 Sudoeste 27 Oeste 0 -- -- 71
2019-10-12 23:00:00 21.9 16 Sudoeste 32 Sudoeste 0 -- -- 65
2019-10-12 22:00:00 23.1 15 Sudoeste 28 Sudoeste 0 -- -- 60
2019-10-12 21:00:00 24 15 Sudoeste 28 Sudoeste 0 -- -- 52
2019-10-12 20:00:00 25.3 17 Sudoeste 28 Sudoeste 0 -- -- 42
2019-10-12 19:00:00 27.5 13 Sudoeste 28 Sudoeste 0 -- -- 34
2019-10-12 18:00:00 29.7 15 Sudoeste 30 Sudoeste 0 -- -- 33
2019-10-12 17:00:00 29.9 14 Sudoeste 27 Sudoeste 0 -- -- 31
2019-10-12 16:00:00 30.2 12 Sur 22 Sur 0 -- -- 30
2019-10-12 15:00:00 28.8 5 Sudeste 17 Sur 0 -- -- 34
2019-10-12 14:00:00 27.2 9 Este 18 Este 0 -- -- 38
2019-10-12 13:00:00 26.1 8 Este 20 Este 0 -- -- 40
2019-10-12 12:00:00 22.9 4 Este 15 Este 0 -- -- 48
2019-10-12 11:00:00 22 5 Este 17 Este 0 -- -- 49
2019-10-12 10:00:00 18.9 0 Calma 6 Nordeste 0 -- -- 63
2019-10-12 09:00:00 16.6 5 Nordeste 8 Nordeste 0 -- -- 70
2019-10-12 08:00:00 16.7 2 Norte 4 Norte 0 -- -- 72
2019-10-12 07:00:00 16.9 2 Norte 10 Sur 0 -- -- 67
2019-10-12 06:00:00 17 4 Nordeste 6 Nordeste 0 -- -- 65
2019-10-12 05:00:00 16.4 4 Nordeste 6 Nordeste 0 -- -- 72
2019-10-12 04:00:00 16.5 0 Calma 5 Nordeste 0 -- -- 67
2019-10-12 03:00:00 17 0 Calma 5 Nordeste 0 -- -- 65
2019-10-12 02:00:00 17.5 4 Nordeste 6 Nordeste 0 -- -- 63
2019-10-12 01:00:00 18.1 3 Norte 6 Nordeste 0 -- -- 62
2019-10-12 00:00:00 19.2 2 Este 4 Nordeste 0 -- -- 62
2019-10-11 23:00:00 20.4 0 Calma 9 Sudoeste 0 -- -- 55
2019-10-11 22:00:00 21.1 8 Sudoeste 14 Sudoeste 0 -- -- 48
2019-10-11 21:00:00 21.2 0 Calma 4 Norte 0 -- -- 47
2019-10-11 20:00:00 23.7 0 Calma 9 Sur 0 -- -- 38
2019-10-11 19:00:00 25.1 6 Sudoeste 19 Sudoeste 0 -- -- 34
2019-10-11 18:00:00 26.1 9 Sudoeste 22 Sudoeste 0 -- -- 35
2019-10-11 17:00:00 27.3 12 Sudoeste 29 Sudoeste 0 -- -- 38
2019-10-11 16:00:00 27.2 10 Sur 22 Sur 0 -- -- 40
2019-10-11 15:00:00 26.5 11 Sudoeste 24 Sudoeste 0 -- -- 39
2019-10-11 14:00:00 26.6 5 Sur 14 Sudoeste 0 -- -- 41
2019-10-11 13:00:00 23.4 8 Sur 14 Este 0 -- -- 54
2019-10-11 12:00:00 23.1 5 Este 15 Este 0 -- -- 57
2019-10-11 11:00:00 21.7 3 Sudeste 10 Este 0 -- -- 62
2019-10-11 10:00:00 19.4 2 Sudoeste 6 Nordeste 0 -- -- 74
2019-10-11 09:00:00 15 3 Nordeste 5 Nordeste 0 -- -- 90
2019-10-11 08:00:00 15.2 0 Calma 5 Norte 0 -- -- 88
2019-10-11 07:00:00 15.7 0 Calma 5 Oeste 0 -- -- 86
2019-10-11 06:00:00 16.2 3 Sudoeste 6 Sudoeste 0 -- -- 82
2019-10-11 05:00:00 16.8 3 Oeste 11 Sudoeste 0 -- -- 78
2019-10-11 04:00:00 17.2 6 Sudoeste 11 Sudoeste 0 -- -- 73
2019-10-11 03:00:00 17.6 8 Sudoeste 16 Oeste 0 -- -- 63
2019-10-11 02:00:00 19.1 13 Sudoeste 19 Sudoeste 0 -- -- 62
2019-10-11 01:00:00 18.9 6 Sudoeste 13 Sudoeste 0 -- -- 58
2019-10-11 00:00:00 19 3 Sudoeste 7 Oeste 0 -- -- 55
2019-10-10 23:00:00 20.1 0 Calma 9 Oeste 0 -- -- 54
2019-10-10 22:00:00 21.3 8 Sudoeste 11 Sudoeste 0 -- -- 49
2019-10-10 21:00:00 23.6 6 Sudoeste 18 Sudoeste 0 -- -- 45
2019-10-10 20:00:00 25.7 10 Sudoeste 21 Sudoeste 0 -- -- 42
2019-10-10 19:00:00 28.3 11 Sudoeste 21 Sudoeste 0 -- -- 38
2019-10-10 18:00:00 29.9 12 Sudoeste 25 Sudoeste 0 -- -- 36
2019-10-10 17:00:00 30.2 14 Sudoeste 29 Sudoeste 0 -- -- 36
2019-10-10 16:00:00 30.6 6 Oeste 23 Oeste 0 -- -- 35
2019-10-10 15:00:00 29.6 8 Sudoeste 22 Sudoeste 0 -- -- 37
2019-10-10 14:00:00 28.1 13 Sudoeste 26 Sudoeste 0 -- -- 41
2019-10-10 13:00:00 26.9 12 Sudoeste 26 Sudoeste 0 -- -- 41
2019-10-10 12:00:00 25.1 15 Sudoeste 25 Sudoeste 0 -- -- 46
2019-10-10 11:00:00 23.7 9 Sur 17 Sudeste 0 -- -- 48
2019-10-10 10:00:00 20 4 Sur 8 Sur 0 -- -- 58
2019-10-10 09:00:00 14.6 5 Nordeste 6 Nordeste 0 -- -- 76
2019-10-10 08:00:00 15.1 0 Calma 7 Nordeste 0 -- -- 72
2019-10-10 07:00:00 16.4 5 Nordeste 9 Este 0 -- -- 65
2019-10-10 06:00:00 16.4 6 Este 11 Este 0 -- -- 65
2019-10-10 05:00:00 16.3 5 Nordeste 8 Nordeste 0 -- -- 69
2019-10-10 04:00:00 17.4 2 Norte 5 Nordeste 0 -- -- 66
2019-10-10 03:00:00 19.1 2 Nordeste 6 Nordeste 0 -- -- 60
2019-10-10 02:00:00 19.9 2 Norte 13 Norte 0 -- -- 58
2019-10-10 01:00:00 20.2 4 Nordeste 11 Norte 0 -- -- 61
2019-10-10 00:00:00 20.1 6 Nordeste 15 Norte 0 -- -- 60
2019-10-09 23:00:00 21.2 3 Nordeste 5 Nordeste 0 -- -- 53
2019-10-09 22:00:00 23.8 4 Sudoeste 9 Sudoeste 0 -- -- 44
2019-10-09 21:00:00 25.2 8 Sudoeste 15 Sudoeste 0 -- -- 40
2019-10-09 20:00:00 27 10 Sudoeste 19 Sudoeste 0 -- -- 36
2019-10-09 19:00:00 29.3 14 Sudoeste 24 Sudoeste 0 -- -- 33
2019-10-09 18:00:00 31.6 12 Sudoeste 22 Sudoeste 0 -- -- 30
2019-10-09 17:00:00 32.2 10 Sudoeste 24 Sudoeste 0 -- -- 30
2019-10-09 16:00:00 31.7 15 Sudoeste 25 Sudoeste 0 -- -- 32
2019-10-09 15:00:00 31 10 Sur 18 Sudoeste 0 -- -- 32
2019-10-09 14:00:00 30 4 Oeste 17 Sur 0 -- -- 34
2019-10-09 13:00:00 27.7 8 Sur 15 Sur 0 -- -- 39
2019-10-09 12:00:00 25.7 7 Sur 15 Sur 0 -- -- 44
2019-10-09 11:00:00 23.5 5 Sudoeste 11 Sudoeste 0 -- -- 51
2019-10-09 10:00:00 19.2 3 Nordeste 7 Nordeste 0 -- -- 65
2019-10-09 09:00:00 13.8 2 Norte 7 Nordeste 0 -- -- 86
2019-10-09 08:00:00 13.8 0 Calma 5 Nordeste 0 -- -- 85
2019-10-09 07:00:00 14.1 4 Nordeste 5 Nordeste 0 -- -- 81
2019-10-09 06:00:00 14.9 3 Nordeste 5 Este 0 -- -- 79
2019-10-09 05:00:00 15.7 0 Calma 4 Nordeste 0 -- -- 76
2019-10-09 04:00:00 17 0 Calma 6 Sur 0 -- -- 70
2019-10-09 03:00:00 16.6 2 Nordeste 4 Sudoeste 0 -- -- 70
2019-10-09 02:00:00 17.8 0 Calma 5 Sudoeste 0 -- -- 62
2019-10-09 01:00:00 20 0 Calma 16 Sudoeste 0 -- -- 52
2019-10-09 00:00:00 21.5 11 Sudoeste 23 Oeste 0 -- -- 47
2019-10-08 23:00:00 21 6 Sudoeste 13 Oeste 0 -- -- 48
2019-10-08 22:00:00 22.6 9 Sudoeste 17 Sudoeste 0 -- -- 44
2019-10-08 21:00:00 23.7 9 Sudoeste 12 Sudoeste 0 -- -- 39
2019-10-08 20:00:00 26.4 8 Sudoeste 19 Sudoeste 0 -- -- 36
2019-10-08 19:00:00 29.5 10 Sudoeste 22 Sur 0 -- -- 30
2019-10-08 18:00:00 31.1 12 Sur 22 Sur 0 -- -- 28
2019-10-08 17:00:00 31.9 9 Sur 22 Sudoeste 0 -- -- 27
2019-10-08 16:00:00 32 11 Sur 23 Sudoeste 0 -- -- 26
2019-10-08 15:00:00 31.3 4 Sur 15 Sudoeste 0 -- -- 26
2019-10-08 14:00:00 30.4 7 Sudoeste 15 Sudoeste 0 -- -- 28
2019-10-08 13:00:00 28.7 5 Sur 13 Sudoeste 0 -- -- 30
2019-10-08 12:00:00 26.9 7 Este 13 Este 0 -- -- 33
2019-10-08 11:00:00 25.3 5 Sur 15 Este 0 -- -- 35
2019-10-08 10:00:00 21.4 0 Calma 6 Nordeste 0 -- -- 46
2019-10-08 09:00:00 15.2 4 Nordeste 8 Nordeste 0 -- -- 65
2019-10-08 08:00:00 14.4 0 Calma 7 Nordeste 0 -- -- 69
2019-10-08 07:00:00 15 5 Nordeste 9 Nordeste 0 -- -- 67
2019-10-08 06:00:00 14.9 3 Nordeste 7 Nordeste 0 -- -- 67
2019-10-08 05:00:00 15.5 2 Norte 8 Nordeste 0 -- -- 58
2019-10-08 04:00:00 16.2 6 Nordeste 9 Nordeste 0 -- -- 59
2019-10-08 03:00:00 18.3 6 Nordeste 10 Nordeste 0 -- -- 53
2019-10-08 02:00:00 18.7 5 Nordeste 10 Este 0 -- -- 49
2019-10-08 01:00:00 18.5 5 Nordeste 9 Nordeste 0 -- -- 47
2019-10-08 00:00:00 18.4 5 Nordeste 8 Nordeste 0 -- -- 46
2019-10-07 23:00:00 18.3 4 Nordeste 9 Nordeste 0 -- -- 51
2019-10-07 22:00:00 19.8 4 Nordeste 8 Nordeste 0 -- -- 47
2019-10-07 21:00:00 22.8 3 Nordeste 6 Noroeste 0 -- -- 35
2019-10-07 20:00:00 26.9 3 Este 18 Sudoeste 0 -- -- 30
2019-10-07 19:00:00 30.9 10 Sudoeste 17 Sudoeste 0 -- -- 23
2019-10-07 18:00:00 32.7 10 Sudoeste 20 Sudoeste 0 -- -- 21
2019-10-07 17:00:00 33.3 6 Este 15 Sudoeste 0 -- -- 21
2019-10-07 16:00:00 32.5 6 Sudoeste 17 Sudoeste 0 -- -- 21
2019-10-07 15:00:00 30.3 6 Nordeste 15 Sudeste 0 -- -- 22
2019-10-07 14:00:00 28.9 6 Nordeste 15 Sudeste 0 -- -- 23
2019-10-07 13:00:00 27.2 5 Este 17 Este 0 -- -- 27
2019-10-07 12:00:00 26 7 Este 14 Este 0 -- -- 28
2019-10-07 11:00:00 24.7 6 Este 15 Este 0 -- -- 32
2019-10-07 10:00:00 21.3 8 Norte 14 Nordeste 0 -- -- 39
2019-10-07 09:00:00 15.4 5 Nordeste 9 Nordeste 0 -- -- 57
2019-10-07 08:00:00 15.2 8 Nordeste 11 Nordeste 0 -- -- 56
2019-10-07 07:00:00 15.7 4 Nordeste 8 Nordeste 0 -- -- 53
2019-10-07 06:00:00 14.9 2 Nordeste 7 Nordeste 0 -- -- 55
2019-10-07 05:00:00 14.3 3 Nordeste 6 Este 0 -- -- 57
2019-10-07 04:00:00 14.6 4 Nordeste 7 Nordeste 0 -- -- 59
2019-10-07 03:00:00 16.6 4 Nordeste 11 Nordeste 0 -- -- 49
2019-10-07 02:00:00 17.2 6 Norte 14 Norte 0 -- -- 50
2019-10-07 01:00:00 16.3 2 Norte 6 Noroeste 0 -- -- 58
2019-10-07 00:00:00 16.3 0 Calma 12 Nordeste 0 -- -- 49
2019-10-06 23:00:00 17.3 3 Norte 6 Nordeste 0 -- -- 58
2019-10-06 22:00:00 20.8 3 Norte 13 Oeste 0 -- -- 46
2019-10-06 21:00:00 22.7 5 Oeste 11 Oeste 0 -- -- 39
2019-10-06 20:00:00 25.3 6 Sudoeste 17 Sudoeste 0 -- -- 33
2019-10-06 19:00:00 28.2 9 Sudoeste 21 Sudoeste 0 -- -- 29
2019-10-06 18:00:00 29.5 7 Sur 20 Sur 0 -- -- 27
2019-10-06 17:00:00 29.8 9 Sur 23 Sudoeste 0 -- -- 27
2019-10-06 16:00:00 30.1 5 Sudoeste 20 Sudoeste 0 -- -- 27
2019-10-06 15:00:00 29.3 9 Sur 19 Sudoeste 0 -- -- 29
2019-10-06 14:00:00 28.5 8 Sudeste 18 Este 0 -- -- 29
2019-10-06 13:00:00 27.3 8 Este 17 Este 0 -- -- 31
2019-10-06 12:00:00 25.8 4 Norte 13 Nordeste 0 -- -- 31
2019-10-06 11:00:00 23.3 5 Nordeste 13 Norte 0 -- -- 42
2019-10-06 10:00:00 18.8 3 Nordeste 8 Nordeste 0 -- -- 55
2019-10-06 09:00:00 13 3 Nordeste 8 Nordeste 0 -- -- 71
2019-10-06 08:00:00 12.4 5 Este 9 Nordeste 0 -- -- 70
2019-10-06 07:00:00 13.1 4 Este 8 Este 0 -- -- 67
2019-10-06 06:00:00 14 3 Norte 5 Nordeste 0 -- -- 68
2019-10-06 05:00:00 15.1 2 Sudeste 12 Norte 0 -- -- 54
2019-10-06 04:00:00 15.5 2 Nordeste 7 Este 0 -- -- 59
2019-10-06 03:00:00 16.3 0 Calma 14 Noroeste 0 -- -- 55
2019-10-06 02:00:00 17.3 2 Nordeste 7 Norte 0 -- -- 57
2019-10-06 01:00:00 18.6 3 Norte 21 Norte 0 -- -- 55
2019-10-06 00:00:00 18.5 10 Norte 16 Norte 0 -- -- 54
2019-10-05 23:00:00 17.7 6 Nordeste 10 Nordeste 0 -- -- 65
2019-10-05 22:00:00 19.8 0 Calma 9 Oeste 0 -- -- 61
2019-10-05 21:00:00 22.1 3 Noroeste 13 Sudoeste 0 -- -- 49
2019-10-05 20:00:00 24.8 9 Sudoeste 22 Sudoeste 0 -- -- 42
2019-10-05 19:00:00 27.1 12 Sudoeste 23 Sudoeste 0 -- -- 37
2019-10-05 18:00:00 27.4 14 Sudoeste 26 Sudoeste 0 -- -- 36
2019-10-05 17:00:00 28.1 12 Sur 27 Sudoeste 0 -- -- 35
2019-10-05 16:00:00 29.5 11 Sur 22 Sur 0 -- -- 34
2019-10-05 15:00:00 28.8 9 Sudoeste 17 Sur 0 -- -- 37
2019-10-05 14:00:00 27.5 4 Este 15 Nordeste 0 -- -- 38
2019-10-05 13:00:00 25.5 7 Este 18 Este 0 -- -- 42
2019-10-05 12:00:00 24.1 7 Nordeste 13 Nordeste 0 -- -- 45
2019-10-05 11:00:00 22.3 4 Nordeste 10 Norte 0 -- -- 52
2019-10-05 10:00:00 18.2 6 Nordeste 9 Este 0 -- -- 66
2019-10-05 09:00:00 13.1 5 Este 8 Nordeste 0 -- -- 85
2019-10-05 08:00:00 12.1 5 Nordeste 8 Nordeste 0 -- -- 85
2019-10-05 07:00:00 12.9 4 Nordeste 8 Este 0 -- -- 81
2019-10-05 06:00:00 13.2 5 Nordeste 8 Nordeste 0 -- -- 80
2019-10-05 05:00:00 12.7 6 Nordeste 8 Nordeste 0 -- -- 81
2019-10-05 04:00:00 13.2 5 Nordeste 5 Nordeste 0 -- -- 80
2019-10-05 03:00:00 13.9 3 Norte 5 Nordeste 0 -- -- 75
2019-10-05 02:00:00 15.5 3 Norte 6 Noroeste 0 -- -- 69
2019-10-05 01:00:00 17.3 2 Norte 9 Oeste 0 -- -- 61
2019-10-05 00:00:00 19.2 4 Oeste 10 Oeste 0 -- -- 51
2019-10-04 23:00:00 20.4 7 Oeste 14 Oeste 0 -- -- 47
2019-10-04 22:00:00 20.6 9 Oeste 21 Sudoeste 0 -- -- 45
2019-10-04 21:00:00 22.6 12 Oeste 20 Sudoeste 0 -- -- 39
2019-10-04 20:00:00 24.6 12 Sudoeste 22 Sudoeste 0 -- -- 34
2019-10-04 19:00:00 27.3 15 Sudoeste 26 Sudoeste 0 -- -- 29
2019-10-04 18:00:00 29 15 Sudoeste 25 Sudoeste 0 -- -- 27
2019-10-04 17:00:00 29.1 14 Sudoeste 26 Sur 0 -- -- 27
2019-10-04 16:00:00 29.2 12 Sudoeste 25 Sudoeste 0 -- -- 27
2019-10-04 15:00:00 28.2 7 Sur 18 Sur 0 -- -- 32
2019-10-04 14:00:00 26.8 8 Este 19 Este 0 -- -- 37
2019-10-04 13:00:00 24.3 6 Este 14 Nordeste 0 -- -- 41
2019-10-04 12:00:00 22.6 6 Este 12 Sudeste 0 -- -- 45
2019-10-04 11:00:00 19.3 5 Nordeste 13 Este 0 -- -- 56
2019-10-04 10:00:00 17 3 Este 7 Nordeste 0 -- -- 62
2019-10-04 09:00:00 10.8 3 Este 6 Nordeste 0 -- -- 77
2019-10-04 08:00:00 10 4 Nordeste 6 Nordeste 0 -- -- 78
2019-10-04 07:00:00 10.1 5 Nordeste 7 Nordeste 0 -- -- 79
2019-10-04 06:00:00 10.4 3 Nordeste 6 Nordeste 0 -- -- 79
2019-10-04 05:00:00 10.7 4 Nordeste 6 Nordeste 0 -- -- 72
2019-10-04 04:00:00 11.4 5 Nordeste 8 Nordeste 0 -- -- 72
2019-10-04 03:00:00 12.5 3 Nordeste 6 Nordeste 0 -- -- 74
2019-10-04 02:00:00 13.1 5 Nordeste 8 Nordeste 0 -- -- 70
2019-10-04 01:00:00 15.9 2 Sudoeste 8 Sudoeste 0 -- -- 63
2019-10-04 00:00:00 16.2 3 Sudoeste 8 Sudoeste 0 -- -- 60
2019-10-03 23:00:00 17.2 6 Sudoeste 13 Sudoeste 0 -- -- 55
2019-10-03 22:00:00 18.4 2 Norte 7 Noroeste 0 -- -- 57
2019-10-03 21:00:00 21.8 4 Noroeste 16 Sudoeste 0 -- -- 43
2019-10-03 20:00:00 23.9 12 Sudoeste 30 Sudoeste 0 -- -- 38
2019-10-03 19:00:00 25.8 14 Sudoeste 31 Sudoeste 0 -- -- 37
2019-10-03 18:00:00 27.8 12 Sudoeste 24 Sudoeste 0 -- -- 34
2019-10-03 17:00:00 28.5 4 Norte 23 Sur 0 -- -- 33
2019-10-03 16:00:00 26.5 11 Sur 24 Sur 0 -- -- 38
2019-10-03 15:00:00 26 9 Sur 22 Sudeste 0 -- -- 40
2019-10-03 14:00:00 27.1 6 Noroeste 20 Norte 0 -- -- 27
2019-10-03 13:00:00 23.5 6 Nordeste 15 Este 0 -- -- 42
2019-10-03 12:00:00 22.5 5 Este 12 Este 0 -- -- 40
2019-10-03 11:00:00 20.4 3 Este 8 Nordeste 0 -- -- 42
2019-10-03 10:00:00 16.1 3 Norte 7 Norte 0 -- -- 56
2019-10-03 09:00:00 11.5 6 Nordeste 10 Nordeste 0 -- -- 72
2019-10-03 08:00:00 11.5 0 Calma 7 Nordeste 0 -- -- 67
2019-10-03 07:00:00 11 4 Nordeste 6 Nordeste 0 -- -- 70
2019-10-03 06:00:00 11.4 0 Calma 7 Nordeste 0 -- -- 67
2019-10-03 05:00:00 12.1 3 Oeste 5 Oeste 0 -- -- 67
2019-10-03 04:00:00 13.2 0 Calma 7 Nordeste 0 -- -- 61
2019-10-03 03:00:00 14.5 3 Nordeste 9 Este 0 -- -- 50
2019-10-03 02:00:00 16.6 4 Nordeste 19 Noroeste 0 -- -- 49
2019-10-03 01:00:00 20.5 12 Norte 22 Norte 0 -- -- 34
2019-10-03 00:00:00 16.9 8 Norte 19 Noroeste 0 -- -- 43
2019-10-02 23:00:00 17.9 2 Oeste 17 Norte 0 -- -- 47
2019-10-02 22:00:00 18 4 Norte 15 Noroeste 0 -- -- 42
2019-10-02 21:00:00 20.9 3 Norte 13 Noroeste 0 -- -- 34
2019-10-02 20:00:00 24.6 8 Norte 21 Noroeste 0 -- -- 24
2019-10-02 19:00:00 27 8 Oeste 25 Oeste 0 -- -- 20
2019-10-02 18:00:00 28.7 8 Oeste 25 Oeste 0 -- -- 22
2019-10-02 17:00:00 28.8 7 Oeste 22 Noroeste 0 -- -- 23
2019-10-02 16:00:00 29.1 11 Oeste 23 Oeste 0 -- -- 23
2019-10-02 15:00:00 28.2 8 Noroeste 21 Norte 0 -- -- 22
2019-10-02 14:00:00 27.2 7 Noroeste 22 Norte 0 -- -- 24
2019-10-02 13:00:00 25.6 6 Sudoeste 14 Sudoeste 0 -- -- 34
2019-10-02 12:00:00 23.4 6 Sudoeste 13 Sudoeste 0 -- -- 38
2019-10-02 11:00:00 21.3 3 Nordeste 7 Sudoeste 0 -- -- 47
2019-10-02 10:00:00 17 3 Sur 7 Sudoeste 0 -- -- 66
2019-10-02 09:00:00 12.4 2 Sudeste 10 Nordeste 0 -- -- 86
2019-10-02 08:00:00 13 4 Sudeste 15 Noroeste 0 -- -- 81
2019-10-02 07:00:00 12.3 5 Nordeste 9 Nordeste 0 -- -- 84
2019-10-02 06:00:00 14 2 Nordeste 10 Oeste 0 -- -- 78
2019-10-02 05:00:00 15.3 4 Oeste 13 Oeste 0 -- -- 71
2019-10-02 04:00:00 16.1 10 Oeste 16 Oeste 0 -- -- 67
2019-10-02 03:00:00 17.3 8 Oeste 14 Oeste 0 -- -- 62
2019-10-02 02:00:00 18.4 3 Noroeste 13 Oeste 0 -- -- 57
2019-10-02 01:00:00 20 5 Oeste 27 Noroeste 0 -- -- 52
2019-10-02 00:00:00 20.7 6 Oeste 23 Noroeste 0 -- -- 52
2019-10-01 23:00:00 20 7 Oeste 17 Oeste 0 -- -- 52
2019-10-01 22:00:00 21.6 6 Oeste 15 Oeste 0 -- -- 46
2019-10-01 21:00:00 22.4 5 Oeste 16 Oeste 0 -- -- 42
2019-10-01 20:00:00 24.2 8 Oeste 21 Noroeste 0 -- -- 38
2019-10-01 19:00:00 26.8 8 Oeste 28 Oeste 0 -- -- 32
2019-10-01 18:00:00 27.5 14 Noroeste 32 Noroeste 0 -- -- 29
2019-10-01 17:00:00 29.3 11 Noroeste 29 Oeste 0 -- -- 25
2019-10-01 16:00:00 29.1 10 Oeste 30 Oeste 0 -- -- 22
2019-10-01 15:00:00 29.3 7 Noroeste 26 Oeste 0 -- -- 23
2019-10-01 14:00:00 29.1 6 Oeste 21 Nordeste 0 -- -- 28
2019-10-01 13:00:00 28 6 Oeste 22 Oeste 0 -- -- 30
2019-10-01 12:00:00 26.7 8 Sudoeste 17 Oeste 0 -- -- 31
2019-10-01 11:00:00 25 5 Noroeste 13 Noroeste 0 -- -- 34
2019-10-01 10:00:00 20.3 3 Sudoeste 10 Noroeste 0 -- -- 55
2019-10-01 09:00:00 15.8 3 Norte 12 Noroeste 0 -- -- 68
2019-10-01 08:00:00 15.2 2 Norte 4 Nordeste 0 -- -- 75
2019-10-01 07:00:00 14.7 4 Nordeste 7 Nordeste 0 -- -- 70
2019-10-01 06:00:00 14.8 5 Nordeste 7 Nordeste 0 -- -- 71
2019-10-01 05:00:00 14.7 4 Nordeste 7 Nordeste 0 -- -- 73
2019-10-01 04:00:00 15.2 2 Norte 6 Nordeste 0 -- -- 74
2019-10-01 03:00:00 16.2 0 Calma 6 Nordeste 0 -- -- 64
2019-10-01 02:00:00 17.2 4 Nordeste 5 Nordeste 0 -- -- 60
2019-10-01 01:00:00 20.4 2 Noroeste 7 Oeste 0 -- -- 55
2019-10-01 00:00:00 21.9 5 Oeste 12 Oeste 0 -- -- 46
2019-09-30 23:00:00 21.6 6 Oeste 9 Oeste 0 -- -- 48
2019-09-30 22:00:00 22.1 3 Oeste 8 Oeste 0 -- -- 45
2019-09-30 21:00:00 24.2 5 Sudoeste 13 Oeste 0 -- -- 40
2019-09-30 20:00:00 27.1 14 Sudoeste 25 Sur 0 -- -- 34
2019-09-30 19:00:00 29.3 15 Sudoeste 25 Sudoeste 0 -- -- 29
2019-09-30 18:00:00 31.1 10 Sur 22 Sudoeste 0 -- -- 26
2019-09-30 17:00:00 31.3 6 Sudoeste 20 Sudoeste 0 -- -- 27
2019-09-30 16:00:00 31 6 Sudeste 19 Este 0 -- -- 30
2019-09-30 15:00:00 30.6 6 Este 18 Este 0 -- -- 33
2019-09-30 14:00:00 28.9 6 Sudeste 19 Este 0 -- -- 37
2019-09-30 13:00:00 26.9 7 Este 17 Este 0 -- -- 40
2019-09-30 12:00:00 24.7 5 Nordeste 10 Este 0 -- -- 43
2019-09-30 11:00:00 22 6 Este 10 Este 0 -- -- 54
2019-09-30 10:00:00 18.6 0 Calma 5 Este 0 -- -- 55
2019-09-30 09:00:00 12.5 3 Nordeste 6 Nordeste 0 -- -- 80
2019-09-30 08:00:00 12.3 2 Nordeste 5 Nordeste 0 -- -- 80
2019-09-30 07:00:00 12.6 4 Nordeste 5 Nordeste 0 -- -- 79
2019-09-30 06:00:00 13 3 Este 7 Nordeste 0 -- -- 78
2019-09-30 05:00:00 13.7 3 Nordeste 5 Nordeste 0 -- -- 76
2019-09-30 04:00:00 14.9 4 Nordeste 6 Nordeste 0 -- -- 69
2019-09-30 03:00:00 15.1 3 Nordeste 6 Nordeste 0 -- -- 69
2019-09-30 02:00:00 16.9 0 Calma 4 Nordeste 0 -- -- 65
2019-09-30 01:00:00 18 3 Nordeste 7 Nordeste 0 -- -- 53
2019-09-30 00:00:00 20.7 0 Calma 9 Oeste 0 -- -- 44
2019-09-29 23:00:00 22.3 4 Oeste 10 Oeste 0 -- -- 39
2019-09-29 22:00:00 23.3 8 Oeste 13 Sudoeste 0 -- -- 37
2019-09-29 21:00:00 25.6 9 Sudoeste 24 Sudoeste 0 -- -- 32
2019-09-29 20:00:00 27.5 12 Sudoeste 24 Sudoeste 0 -- -- 28
2019-09-29 19:00:00 30.5 13 Sudoeste 24 Sudoeste 0 -- -- 24
2019-09-29 18:00:00 31.8 16 Sudoeste 26 Sudoeste 0 -- -- 22
2019-09-29 17:00:00 32.6 14 Sudoeste 23 Sudoeste 0 -- -- 22
2019-09-29 16:00:00 32.5 12 Sudoeste 23 Sur 0 -- -- 23
2019-09-29 15:00:00 31.8 12 Sur 20 Sur 0 -- -- 25
2019-09-29 14:00:00 30.8 8 Sur 19 Nordeste 0 -- -- 28
2019-09-29 13:00:00 28.6 8 Este 15 Nordeste 0 -- -- 31
2019-09-29 12:00:00 27.1 6 Este 14 Este 0 -- -- 32
2019-09-29 11:00:00 25.4 6 Este 14 Este 0 -- -- 36
2019-09-29 10:00:00 20.6 4 Nordeste 6 Nordeste 0 -- -- 50
2019-09-29 09:00:00 13.8 4 Nordeste 5 Norte 0 -- -- 72
2019-09-29 08:00:00 13.1 3 Nordeste 4 Nordeste 0 -- -- 76
2019-09-29 07:00:00 13.5 2 Noroeste 6 Nordeste 0 -- -- 69
2019-09-29 06:00:00 13.6 2 Noroeste 6 Sudoeste 0 -- -- 70
2019-09-29 05:00:00 13.7 0 Calma 4 Nordeste 0 -- -- 63
2019-09-29 04:00:00 14.9 0 Calma 7 Nordeste 0 -- -- 65
2019-09-29 03:00:00 14.3 4 Norte 7 Nordeste 0 -- -- 62
2019-09-29 02:00:00 14.9 3 Norte 5 Norte 0 -- -- 64
2019-09-29 01:00:00 16.2 2 Noroeste 4 Norte 0 -- -- 62
2019-09-29 00:00:00 17.3 0 Calma 5 Noroeste 0 -- -- 56
2019-09-28 23:00:00 17.9 3 Norte 4 Norte 0 -- -- 52
2019-09-28 22:00:00 19.3 2 Norte 4 Norte 0 -- -- 52
2019-09-28 21:00:00 22.8 2 Norte 9 Sudoeste 0 -- -- 38
2019-09-28 20:00:00 28.2 6 Sudoeste 20 Sudoeste 0 -- -- 23
2019-09-28 19:00:00 30.9 11 Sudoeste 22 Sur 0 -- -- 19
2019-09-28 18:00:00 32.6 7 Sur 19 Sudoeste 0 -- -- 17
2019-09-28 17:00:00 32.7 7 Sudoeste 21 Sur 0 -- -- 17
2019-09-28 16:00:00 32.3 7 Sur 18 Sur 0 -- -- 19
2019-09-28 15:00:00 30.8 8 Este 18 Este 0 -- -- 25
2019-09-28 14:00:00 29.8 6 Este 17 Este 0 -- -- 29
2019-09-28 13:00:00 28.1 6 Este 14 Este 0 -- -- 31
2019-09-28 12:00:00 25.7 5 Este 14 Este 0 -- -- 36
2019-09-28 11:00:00 23.7 6 Este 12 Este 0 -- -- 38
2019-09-28 10:00:00 20.7 4 Nordeste 8 Este 0 -- -- 45
2019-09-28 09:00:00 15.2 4 Nordeste 9 Nordeste 0 -- -- 62
2019-09-28 08:00:00 14.3 7 Este 9 Este 0 -- -- 66
2019-09-28 07:00:00 13.8 4 Nordeste 7 Nordeste 0 -- -- 71
2019-09-28 06:00:00 15.1 4 Nordeste 10 Nordeste 0 -- -- 68
2019-09-28 05:00:00 15.5 6 Nordeste 10 Este 0 -- -- 66
2019-09-28 04:00:00 15.4 6 Nordeste 8 Nordeste 0 -- -- 63
2019-09-28 03:00:00 15.1 6 Nordeste 8 Nordeste 0 -- -- 70
2019-09-28 02:00:00 16.4 3 Norte 4 Nordeste 0 -- -- 66
2019-09-28 01:00:00 17.9 0 Calma 5 Este 0 -- -- 54
2019-09-28 00:00:00 19.3 0 Calma 8 Este 0 -- -- 48
2019-09-27 23:00:00 21.2 5 Nordeste 11 Oeste 0 -- -- 45
2019-09-27 22:00:00 23 7 Oeste 13 Oeste 0 -- -- 38
2019-09-27 21:00:00 23.7 6 Oeste 10 Oeste 0 -- -- 39
2019-09-27 20:00:00 27.3 6 Sudoeste 20 Sur 0 -- -- 28
2019-09-27 19:00:00 29.9 13 Sudoeste 26 Sudoeste 0 -- -- 26
2019-09-27 18:00:00 30.7 16 Sudoeste 29 Sudoeste 0 -- -- 25
2019-09-27 17:00:00 31.4 13 Sudoeste 29 Sudoeste 0 -- -- 25
2019-09-27 16:00:00 30.9 16 Sudoeste 28 Sur 0 -- -- 26
2019-09-27 15:00:00 30.7 12 Sudoeste 27 Sur 0 -- -- 27
2019-09-27 14:00:00 29.8 9 Sur 19 Sur 0 -- -- 28
2019-09-27 13:00:00 27.4 8 Nordeste 16 Este 0 -- -- 34
2019-09-27 12:00:00 25.2 5 Sudeste 12 Este 0 -- -- 37
2019-09-27 11:00:00 23.1 5 Este 10 Este 0 -- -- 41
2019-09-27 10:00:00 19.5 2 Este 5 Este 0 -- -- 49
2019-09-27 09:00:00 13 4 Nordeste 5 Nordeste 0 -- -- 77
2019-09-27 08:00:00 12.4 4 Nordeste 7 Nordeste 0 -- -- 78
2019-09-27 07:00:00 13.2 4 Nordeste 5 Nordeste 0 -- -- 73
2019-09-27 06:00:00 13.7 0 Calma 9 Nordeste 0 -- -- 70
2019-09-27 05:00:00 13.7 4 Nordeste 8 Nordeste 0 -- -- 73
2019-09-27 04:00:00 14.6 5 Nordeste 8 Nordeste 0 -- -- 68
2019-09-27 03:00:00 14.9 5 Nordeste 8 Nordeste 0 -- -- 65
2019-09-27 02:00:00 16.7 0 Calma 5 Nordeste 0 -- -- 57
2019-09-27 01:00:00 18.6 3 Nordeste 5 Nordeste 0 -- -- 50
2019-09-27 00:00:00 19.8 0 Calma 13 Sudoeste 0 -- -- 44
2019-09-26 23:00:00 20.5 2 Oeste 10 Sudoeste 0 -- -- 38
2019-09-26 22:00:00 22.1 6 Oeste 9 Oeste 0 -- -- 38
2019-09-26 21:00:00 23.8 0 Calma 17 Sudoeste 0 -- -- 41
2019-09-26 20:00:00 26.8 12 Sudoeste 23 Sudoeste 0 -- -- 30
2019-09-26 19:00:00 29.7 14 Sudoeste 25 Sudoeste 0 -- -- 26
2019-09-26 18:00:00 30.5 18 Sudoeste 31 Sudoeste 0 -- -- 25
2019-09-26 17:00:00 31 14 Sudoeste 23 Sudoeste 0 -- -- 25
2019-09-26 16:00:00 30.7 10 Sudoeste 24 Sudoeste 0 -- -- 26
2019-09-26 15:00:00 29.9 9 Sur 22 Sudoeste 0 -- -- 28
2019-09-26 14:00:00 28.4 6 Sudoeste 22 Sudoeste 0 -- -- 31
2019-09-26 13:00:00 27.9 7 Sudoeste 19 Sur 0 -- -- 33
2019-09-26 12:00:00 25.8 5 Nordeste 13 Este 0 -- -- 34
2019-09-26 11:00:00 23.9 5 Este 10 Este 0 -- -- 38
2019-09-26 10:00:00 20.5 4 Nordeste 7 Nordeste 0 -- -- 47
2019-09-26 09:00:00 14.7 6 Nordeste 9 Este 0 -- -- 65
2019-09-26 08:00:00 14.4 5 Este 8 Este 0 -- -- 64
2019-09-26 07:00:00 14.5 4 Nordeste 9 Nordeste 0 -- -- 63
2019-09-26 06:00:00 14.9 6 Nordeste 10 Norte 0 -- -- 63
2019-09-26 05:00:00 15.7 5 Nordeste 14 Noroeste 0 -- -- 59
2019-09-26 04:00:00 16.4 6 Nordeste 15 Norte 0 -- -- 57
2019-09-26 03:00:00 17.1 7 Norte 16 Norte 0 -- -- 56
2019-09-26 02:00:00 17.6 7 Norte 16 Norte 0 -- -- 54
2019-09-26 01:00:00 18.6 6 Norte 19 Noroeste 0 -- -- 52
2019-09-26 00:00:00 18.9 7 Norte 21 Norte 0 -- -- 50
2019-09-25 23:00:00 20.2 9 Norte 17 Noroeste 0 -- -- 46
2019-09-25 22:00:00 21.8 7 Norte 17 Norte 0 -- -- 44
2019-09-25 21:00:00 23.2 8 Norte 21 Noroeste 0 -- -- 36
2019-09-25 20:00:00 25.5 7 Noroeste 16 Noroeste 0 -- -- 32
2019-09-25 19:00:00 27.9 8 Noroeste 19 Noroeste 0 -- -- 28
2019-09-25 18:00:00 29.3 5 Oeste 17 Oeste 0 -- -- 25
2019-09-25 17:00:00 29.9 8 Oeste 23 Noroeste 0 -- -- 26
2019-09-25 16:00:00 28.9 7 Este 18 Sudoeste 0 -- -- 33
2019-09-25 15:00:00 28.2 10 Sur 21 Oeste 0 -- -- 30
2019-09-25 14:00:00 27 7 Norte 15 Oeste 0 -- -- 32
2019-09-25 13:00:00 24.9 4 Oeste 13 Nordeste 0 -- -- 38
2019-09-25 12:00:00 22.4 8 Nordeste 17 Nordeste 0 -- -- 45
2019-09-25 11:00:00 20.5 7 Norte 18 Nordeste 0 -- -- 56
2019-09-25 10:00:00 18.7 5 Norte 12 Norte 0 -- -- 66
2019-09-25 09:00:00 15.3 0 Calma 9 Oeste 0 -- -- 80
2019-09-25 08:00:00 16.3 4 Norte 15 Noroeste 0 -- -- 75
2019-09-25 07:00:00 17.2 4 Noroeste 16 Noroeste 0 -- -- 79
2019-09-25 06:00:00 18 8 Noroeste 17 Noroeste 0 -- -- 80
2019-09-25 05:00:00 18.7 8 Noroeste 23 Noroeste 0 -- -- 79
2019-09-25 04:00:00 19.4 8 Noroeste 27 Norte 0 -- -- 79
2019-09-25 03:00:00 19.8 11 Noroeste 26 Norte 0 -- -- 77
2019-09-25 02:00:00 20.6 13 Norte 28 Norte 0 -- -- 73
2019-09-25 01:00:00 21.4 8 Norte 28 Noroeste 0 -- -- 69
2019-09-25 00:00:00 22 8 Norte 24 Norte 0 -- -- 63
2019-09-24 23:00:00 22.8 10 Norte 23 Norte 0 -- -- 55
2019-09-24 22:00:00 23.6 10 Norte 19 Noroeste 0 -- -- 44
2019-09-24 21:00:00 24.1 6 Oeste 12 Oeste 0 -- -- 41
2019-09-24 20:00:00 26.9 12 Sudoeste 21 Sudoeste 0 -- -- 34
2019-09-24 19:00:00 30 13 Sudoeste 29 Oeste 0 -- -- 29
2019-09-24 18:00:00 30.9 14 Sudoeste 24 Sudoeste 0 -- -- 27
2019-09-24 17:00:00 30.6 12 Sur 26 Sur 0 -- -- 27
2019-09-24 16:00:00 30.1 13 Sur 25 Sudeste 0 -- -- 28
2019-09-24 15:00:00 29.6 11 Sudoeste 21 Sudoeste 0 -- -- 29
2019-09-24 14:00:00 28.5 5 Sudeste 15 Sur 0 -- -- 30
2019-09-24 13:00:00 26.9 7 Este 16 Nordeste 0 -- -- 34
2019-09-24 12:00:00 25.2 5 Nordeste 14 Nordeste 0 -- -- 35
2019-09-24 11:00:00 23.4 5 Norte 19 Norte 0 -- -- 41
2019-09-24 10:00:00 20.6 7 Noroeste 15 Norte 0 -- -- 43
2019-09-24 09:00:00 14.4 2 Este 8 Este 0 -- -- 67
2019-09-24 08:00:00 13.9 5 Nordeste 8 Nordeste 0 -- -- 67
2019-09-24 07:00:00 14.1 2 Este 7 Este 0 -- -- 67
2019-09-24 06:00:00 14.9 3 Nordeste 9 Este 0 -- -- 62
2019-09-24 05:00:00 15.2 2 Este 8 Nordeste 0 -- -- 62
2019-09-24 04:00:00 15.4 3 Este 8 Este 0 -- -- 62
2019-09-24 03:00:00 15.6 4 Nordeste 9 Nordeste 0 -- -- 60
2019-09-24 02:00:00 16 4 Nordeste 10 Nordeste 0 -- -- 56
2019-09-24 01:00:00 15.7 6 Este 9 Nordeste 0 -- -- 59
2019-09-24 00:00:00 16.1 4 Nordeste 6 Nordeste 0 -- -- 62
2019-09-23 23:00:00 17.6 0 Calma 7 Nordeste 0 -- -- 62
2019-09-23 22:00:00 19.1 3 Nordeste 6 Nordeste 0 -- -- 63
2019-09-23 21:00:00 21.9 0 Calma 7 Sudoeste 0 -- -- 49
2019-09-23 20:00:00 24.7 6 Sudoeste 14 Sudoeste 0 -- -- 40
2019-09-23 19:00:00 27.7 5 Sur 12 Sur 0 -- -- 33
2019-09-23 18:00:00 28.9 4 Oeste 17 Oeste 0 -- -- 26
2019-09-23 17:00:00 28.3 6 Oeste 15 Oeste 0 -- -- 29
2019-09-23 16:00:00 27.5 5 Noroeste 14 Nordeste 0 -- -- 31
2019-09-23 15:00:00 26.5 5 Oeste 14 Noroeste 0 -- -- 32
2019-09-23 14:00:00 24.3 4 Nordeste 14 Sur 0 -- -- 40
2019-09-23 13:00:00 23.3 8 Nordeste 36 Este 0 -- -- 44
2019-09-23 12:00:00 21.8 5 Este 14 Nordeste 0 -- -- 49
2019-09-23 11:00:00 20.2 7 Nordeste 14 Nordeste 0 -- -- 55
2019-09-23 10:00:00 17.2 5 Nordeste 10 Nordeste 0 -- -- 66
2019-09-23 09:00:00 13 3 Nordeste 6 Este 0 -- -- 84
2019-09-23 08:00:00 12.3 3 Nordeste 7 Nordeste 0 -- -- 85
2019-09-23 07:00:00 12.5 0 Calma 10 Nordeste 0 -- -- 84
2019-09-23 06:00:00 13 5 Nordeste 12 Noroeste 0 -- -- 83
2019-09-23 05:00:00 13.2 3 Nordeste 8 Norte 0 -- -- 81
2019-09-23 04:00:00 14.2 2 Este 13 Norte 0 -- -- 76
2019-09-23 03:00:00 15.9 9 Norte 17 Noroeste 0 -- -- 67
2019-09-23 02:00:00 17.2 8 Norte 21 Noroeste 0 -- -- 61
2019-09-23 01:00:00 17 11 Norte 19 Norte 0 -- -- 62
2019-09-23 00:00:00 17.9 9 Norte 16 Norte 0 -- -- 60
2019-09-22 23:00:00 18.1 8 Norte 16 Noroeste 0 -- -- 58
2019-09-22 22:00:00 18.9 8 Norte 18 Norte 0 -- -- 57
2019-09-22 21:00:00 20 8 Norte 17 Noroeste 0 -- -- 53
2019-09-22 20:00:00 21.9 5 Noroeste 11 Norte 0 -- -- 48
2019-09-22 19:00:00 23.9 5 Noroeste 17 Norte 0 -- -- 41
2019-09-22 18:00:00 24.9 5 Noroeste 21 Oeste 0 -- -- 38
2019-09-22 17:00:00 24.5 9 Sudoeste 23 Sudoeste 0 -- -- 47
2019-09-22 16:00:00 23.8 9 Oeste 21 Sudoeste 0 -- -- 50
2019-09-22 15:00:00 22.5 9 Sudoeste 23 Oeste 0 -- -- 61
2019-09-22 14:00:00 20 5 Nordeste 13 Noroeste 0 -- -- 76
2019-09-22 13:00:00 17.4 4 Norte 18 Noroeste 0 -- -- 93
2019-09-22 12:00:00 17 6 Norte 18 Oeste 0.4 -- -- 95
2019-09-22 11:00:00 17.1 11 Sudoeste 19 Sudoeste 1.4 -- -- 95
2019-09-22 10:00:00 17 6 Sudoeste 20 Sudoeste 0.4 -- -- 95
2019-09-22 09:00:00 16.8 15 Sudoeste 25 Sudoeste 0.2 -- -- 94
2019-09-22 08:00:00 17 11 Sudoeste 23 Sudoeste 0 -- -- 93
2019-09-22 07:00:00 17.2 12 Sudoeste 21 Sudoeste 0 -- -- 93
2019-09-22 06:00:00 17.3 10 Sudoeste 19 Sudoeste 0 -- -- 92
2019-09-22 05:00:00 17.6 13 Sudoeste 30 Sudoeste 0 -- -- 91
2019-09-22 04:00:00 17.6 17 Sudoeste 29 Sudoeste 0 -- -- 92
2019-09-22 03:00:00 17.6 14 Sudoeste 26 Sudoeste 0 -- -- 92
2019-09-22 02:00:00 17.9 14 Sudoeste 26 Sudoeste 0 -- -- 90
2019-09-22 01:00:00 17.9 12 Sudoeste 23 Sudoeste 0 -- -- 90
2019-09-22 00:00:00 18.3 5 Sudoeste 24 Sudoeste 0 -- -- 85
2019-09-21 23:00:00 18.9 11 Sudoeste 17 Sudoeste 0 -- -- 78
2019-09-21 22:00:00 19.1 8 Sudoeste 24 Sudoeste 0 -- -- 75
2019-09-21 21:00:00 19.7 8 Sudoeste 19 Sudoeste 0 -- -- 70
2019-09-21 20:00:00 20.9 9 Sudoeste 22 Sudoeste 0 -- -- 65
2019-09-21 19:00:00 21.5 8 Sudoeste 21 Sudoeste 0 -- -- 61
2019-09-21 18:00:00 21.5 10 Sudoeste 19 Sudoeste 0 -- -- 62
2019-09-21 17:00:00 21 15 Sudoeste 27 Sudoeste 0.2 -- -- 64
2019-09-21 16:00:00 20 8 Sudoeste 30 Sudoeste 0 -- -- 72
2019-09-21 15:00:00 21.7 17 Sudoeste 37 Sudoeste 0 -- -- 64
2019-09-21 14:00:00 22.5 19 Sudoeste 28 Sudoeste 0 -- -- 62
2019-09-21 13:00:00 20.8 12 Sudoeste 20 Sudoeste 0 -- -- 73
2019-09-21 12:00:00 19.4 8 Sudoeste 12 Sudoeste 0 -- -- 79
2019-09-21 11:00:00 19.3 8 Sudoeste 16 Sudoeste 0 -- -- 78
2019-09-21 10:00:00 18.8 8 Sudoeste 12 Sudoeste 0 -- -- 81
2019-09-21 09:00:00 18.3 3 Sur 5 Sur 0 -- -- 83
2019-09-21 08:00:00 17.7 0 Calma 5 Sur 0 -- -- 85
2019-09-21 07:00:00 17.8 2 Sudoeste 9 Sudoeste 0 -- -- 84
2019-09-21 06:00:00 17.5 4 Oeste 10 Oeste 0 -- -- 86
2019-09-21 05:00:00 17.5 6 Oeste 12 Sudoeste 0 -- -- 86
2019-09-21 04:00:00 17.9 5 Oeste 12 Oeste 0 -- -- 83
2019-09-21 03:00:00 18.6 5 Oeste 15 Oeste 0 -- -- 80
2019-09-21 02:00:00 19.1 10 Sudoeste 19 Sudoeste 0 -- -- 77
2019-09-21 01:00:00 19.7 11 Sudoeste 22 Sudoeste 0 -- -- 73
2019-09-21 00:00:00 20.2 14 Sudoeste 27 Sudoeste 0 -- -- 71
2019-09-20 23:00:00 20.3 12 Sudoeste 18 Sudoeste 0 -- -- 71
2019-09-20 22:00:00 20.8 5 Sudoeste 14 Sudoeste 0 -- -- 68
2019-09-20 21:00:00 21.2 9 Sudoeste 19 Sudoeste 0 -- -- 66
2019-09-20 20:00:00 22.4 11 Sudoeste 24 Sudoeste 0 -- -- 62
2019-09-20 19:00:00 23.2 14 Sudoeste 27 Sudoeste 0 -- -- 62
2019-09-20 18:00:00 24.9 13 Sudoeste 28 Sudoeste 0 -- -- 56
2019-09-20 17:00:00 24.2 12 Sudoeste 28 Sudoeste 0 -- -- 58
2019-09-20 16:00:00 24.5 11 Sudoeste 31 Sudoeste 0 -- -- 57
2019-09-20 15:00:00 24 16 Sudoeste 28 Sur 0 -- -- 59
2019-09-20 14:00:00 23.8 9 Sudoeste 21 Sur 0 -- -- 58
2019-09-20 13:00:00 23.3 7 Sur 20 Sudoeste 0 -- -- 56
2019-09-20 12:00:00 22 10 Sudoeste 18 Sudoeste 0 -- -- 66
2019-09-20 11:00:00 20.9 6 Sudoeste 11 Sudoeste 0 -- -- 66
2019-09-20 10:00:00 18.7 0 Calma 4 Oeste 0 -- -- 69
2019-09-20 09:00:00 16.6 0 Calma 6 Nordeste 0 -- -- 75
2019-09-20 08:00:00 15.9 2 Nordeste 5 Oeste 0 -- -- 75
2019-09-20 07:00:00 16 4 Oeste 7 Sudoeste 0 -- -- 67
2019-09-20 06:00:00 16.5 0 Calma 4 Oeste 0 -- -- 67
2019-09-20 05:00:00 17.5 0 Calma 10 Sudoeste 0 -- -- 61
2019-09-20 04:00:00 18.1 8 Sudoeste 11 Sudoeste 0 -- -- 60
2019-09-20 03:00:00 18.1 2 Oeste 12 Sudoeste 0 -- -- 61
2019-09-20 02:00:00 17.7 0 Calma 5 Nordeste 0 -- -- 67
2019-09-20 01:00:00 17.9 3 Nordeste 6 Nordeste 0 -- -- 66
2019-09-20 00:00:00 18.8 2 Nordeste 5 Norte 0 -- -- 67
2019-09-19 23:00:00 19.5 2 Noroeste 4 Noroeste 0 -- -- 64
2019-09-19 22:00:00 21.4 3 Oeste 6 Oeste 0 -- -- 53
2019-09-19 21:00:00 23.6 3 Oeste 12 Oeste 0 -- -- 45
2019-09-19 20:00:00 25.5 8 Oeste 24 Sudoeste 0 -- -- 40
2019-09-19 19:00:00 27.2 12 Sudoeste 28 Sudoeste 0 -- -- 36
2019-09-19 18:00:00 29 13 Sudoeste 34 Sudoeste 0 -- -- 28
2019-09-19 17:00:00 29.4 14 Oeste 28 Sudoeste 0 -- -- 28
2019-09-19 16:00:00 29.4 14 Sudoeste 26 Sudoeste 0 -- -- 32
2019-09-19 15:00:00 28.7 12 Sur 22 Sudoeste 0 -- -- 37
2019-09-19 14:00:00 27.8 6 Sudeste 19 Sudeste 0 -- -- 42
2019-09-19 13:00:00 26 7 Nordeste 15 Este 0 -- -- 48
2019-09-19 12:00:00 23.9 3 Sudoeste 11 Este 0 -- -- 55
2019-09-19 11:00:00 21.5 5 Este 9 Nordeste 0 -- -- 62
2019-09-19 10:00:00 18.2 2 Este 5 Este 0 -- -- 76
2019-09-19 09:00:00 13.4 3 Nordeste 5 Nordeste 0 -- -- 92
2019-09-19 08:00:00 13.1 3 Nordeste 7 Nordeste 0 -- -- 91
2019-09-19 07:00:00 13.4 5 Nordeste 6 Nordeste 0 -- -- 89
2019-09-19 06:00:00 14 2 Sur 6 Nordeste 0 -- -- 86
2019-09-19 05:00:00 14.3 0 Calma 5 Nordeste 0 -- -- 86
2019-09-19 04:00:00 14.9 0 Calma 4 Nordeste 0 -- -- 83
2019-09-19 03:00:00 15.5 0 Calma 5 Nordeste 0 -- -- 79
2019-09-19 02:00:00 16.8 0 Calma 6 Sudoeste 0 -- -- 74
2019-09-19 01:00:00 18.3 2 Oeste 6 Sudoeste 0 -- -- 60
2019-09-19 00:00:00 19.7 4 Oeste 10 Oeste 0 -- -- 55
2019-09-18 23:00:00 20.2 6 Oeste 10 Sudoeste 0 -- -- 58
2019-09-18 22:00:00 21.7 6 Sudoeste 13 Sudoeste 0 -- -- 53
2019-09-18 21:00:00 23.3 8 Sudoeste 15 Sudoeste 0 -- -- 46
2019-09-18 20:00:00 25.1 10 Sudoeste 21 Sudoeste 0 -- -- 41
2019-09-18 19:00:00 28.1 13 Sudoeste 28 Sudoeste 0 -- -- 35
2019-09-18 18:00:00 28.1 15 Sudoeste 27 Sudoeste 0 -- -- 42
2019-09-18 17:00:00 29.2 13 Sudoeste 25 Sudoeste 0 -- -- 38
2019-09-18 16:00:00 28.7 12 Sudoeste 24 Sur 0 -- -- 40
2019-09-18 15:00:00 28.1 10 Sur 24 Sur 0 -- -- 46
2019-09-18 14:00:00 27 9 Sur 24 Sur 0 -- -- 52
2019-09-18 13:00:00 26.3 6 Sudeste 19 Este 0 -- -- 56
2019-09-18 12:00:00 24.9 8 Este 16 Este 0 -- -- 60
2019-09-18 11:00:00 23.3 5 Sur 10 Sur 0 -- -- 63
2019-09-18 10:00:00 19.9 4 Sudoeste 6 Sur 0 -- -- 80
2019-09-18 09:00:00 15.6 0 Calma 5 Este 0 -- -- 94
2019-09-18 08:00:00 15.4 0 Calma 5 Nordeste 0 -- -- 93
2019-09-18 07:00:00 15.5 3 Nordeste 6 Nordeste 0 -- -- 93
2019-09-18 06:00:00 15.8 2 Norte 4 Nordeste 0 -- -- 92
2019-09-18 05:00:00 15.9 0 Calma 4 Sudoeste 0 -- -- 90
2019-09-18 04:00:00 16.3 0 Calma 4 Nordeste 0 -- -- 88
2019-09-18 03:00:00 16.7 2 Norte 5 Sur 0 -- -- 88
2019-09-18 02:00:00 17.3 4 Nordeste 6 Nordeste 0 -- -- 86
2019-09-18 01:00:00 17.5 0 Calma 5 Norte 0 -- -- 83
2019-09-18 00:00:00 18 4 Nordeste 5 Nordeste 0 -- -- 82
2019-09-17 23:00:00 19 2 Sudoeste 5 Nordeste 0 -- -- 78
2019-09-17 22:00:00 20.2 3 Nordeste 4 Nordeste 0 -- -- 74
2019-09-17 21:00:00 22.7 2 Nordeste 14 Sur 0 -- -- 61